sensor_id;sensor_type;location;lat;lon;timestamp;P1;durP1;ratioP1;P2;durP2;ratioP2
43152;SDS011;28756;49.064;9.290;2023-04-06T00:01:38;9.55;;;6.93;;
43152;SDS011;28756;49.064;9.290;2023-04-06T00:04:04;9.40;;;6.80;;
43152;SDS011;28756;49.064;9.290;2023-04-06T00:06:31;11.57;;;7.13;;
43152;SDS011;28756;49.064;9.290;2023-04-06T00:08:57;12.15;;;8.27;;
43152;SDS011;28756;49.064;9.290;2023-04-06T00:11:24;12.68;;;8.77;;
43152;SDS011;28756;49.064;9.290;2023-04-06T00:13:51;13.30;;;8.70;;
43152;SDS011;28756;49.064;9.290;2023-04-06T00:16:16;12.63;;;8.38;;
43152;SDS011;28756;49.064;9.290;2023-04-06T00:18:43;11.63;;;7.80;;
43152;SDS011;28756;49.064;9.290;2023-04-06T00:21:11;12.70;;;8.93;;
43152;SDS011;28756;49.064;9.290;2023-04-06T00:23:38;10.27;;;7.43;;
43152;SDS011;28756;49.064;9.290;2023-04-06T00:26:04;11.23;;;7.53;;
43152;SDS011;28756;49.064;9.290;2023-04-06T00:28:30;11.15;;;7.25;;
43152;SDS011;28756;49.064;9.290;2023-04-06T00:30:55;11.05;;;7.13;;
43152;SDS011;28756;49.064;9.290;2023-04-06T00:33:21;9.45;;;6.85;;
43152;SDS011;28756;49.064;9.290;2023-04-06T00:35:48;12.65;;;8.07;;
43152;SDS011;28756;49.064;9.290;2023-04-06T00:38:15;12.38;;;8.32;;
43152;SDS011;28756;49.064;9.290;2023-04-06T00:40:41;12.73;;;9.23;;
43152;SDS011;28756;49.064;9.290;2023-04-06T00:43:09;10.70;;;7.93;;
43152;SDS011;28756;49.064;9.290;2023-04-06T00:45:37;10.35;;;7.60;;
43152;SDS011;28756;49.064;9.290;2023-04-06T00:48:04;10.38;;;7.50;;
43152;SDS011;28756;49.064;9.290;2023-04-06T00:50:31;10.77;;;7.45;;
43152;SDS011;28756;49.064;9.290;2023-04-06T00:52:58;11.95;;;7.97;;
43152;SDS011;28756;49.064;9.290;2023-04-06T00:55:25;11.75;;;8.05;;
43152;SDS011;28756;49.064;9.290;2023-04-06T00:57:55;12.55;;;8.20;;
43152;SDS011;28756;49.064;9.290;2023-04-06T01:00:24;12.30;;;8.85;;
43152;SDS011;28756;49.064;9.290;2023-04-06T01:02:50;12.02;;;8.07;;
43152;SDS011;28756;49.064;9.290;2023-04-06T01:05:16;11.68;;;7.70;;
43152;SDS011;28756;49.064;9.290;2023-04-06T01:07:42;13.48;;;8.93;;
43152;SDS011;28756;49.064;9.290;2023-04-06T01:10:07;11.30;;;8.25;;
43152;SDS011;28756;49.064;9.290;2023-04-06T01:12:34;11.77;;;8.05;;
43152;SDS011;28756;49.064;9.290;2023-04-06T01:15:01;10.65;;;7.78;;
43152;SDS011;28756;49.064;9.290;2023-04-06T01:17:26;13.57;;;8.60;;
43152;SDS011;28756;49.064;9.290;2023-04-06T01:19:53;10.05;;;7.43;;
43152;SDS011;28756;49.064;9.290;2023-04-06T01:22:19;9.95;;;6.72;;
43152;SDS011;28756;49.064;9.290;2023-04-06T01:24:45;9.23;;;6.63;;
43152;SDS011;28756;49.064;9.290;2023-04-06T01:27:11;10.05;;;6.70;;
43152;SDS011;28756;49.064;9.290;2023-04-06T01:29:38;6.93;;;5.55;;
43152;SDS011;28756;49.064;9.290;2023-04-06T01:32:06;7.97;;;6.25;;
43152;SDS011;28756;49.064;9.290;2023-04-06T01:34:32;10.63;;;7.68;;
43152;SDS011;28756;49.064;9.290;2023-04-06T01:36:58;11.32;;;7.68;;
43152;SDS011;28756;49.064;9.290;2023-04-06T01:39:24;10.43;;;7.85;;
43152;SDS011;28756;49.064;9.290;2023-04-06T01:41:51;7.88;;;6.43;;
43152;SDS011;28756;49.064;9.290;2023-04-06T01:44:16;7.88;;;6.30;;
43152;SDS011;28756;49.064;9.290;2023-04-06T01:46:43;10.65;;;7.72;;
43152;SDS011;28756;49.064;9.290;2023-04-06T01:49:10;12.40;;;7.90;;
43152;SDS011;28756;49.064;9.290;2023-04-06T01:51:37;9.57;;;7.03;;
43152;SDS011;28756;49.064;9.290;2023-04-06T01:54:02;10.02;;;7.05;;
43152;SDS011;28756;49.064;9.290;2023-04-06T01:56:28;10.10;;;6.32;;
43152;SDS011;28756;49.064;9.290;2023-04-06T01:58:54;8.73;;;6.03;;
43152;SDS011;28756;49.064;9.290;2023-04-06T02:01:20;9.30;;;6.82;;
43152;SDS011;28756;49.064;9.290;2023-04-06T02:03:46;10.70;;;6.65;;
43152;SDS011;28756;49.064;9.290;2023-04-06T02:06:12;9.00;;;6.32;;
43152;SDS011;28756;49.064;9.290;2023-04-06T02:08:38;9.07;;;6.45;;
43152;SDS011;28756;49.064;9.290;2023-04-06T02:11:03;8.50;;;5.93;;
43152;SDS011;28756;49.064;9.290;2023-04-06T02:13:29;8.30;;;5.97;;
43152;SDS011;28756;49.064;9.290;2023-04-06T02:15:55;8.25;;;6.20;;
43152;SDS011;28756;49.064;9.290;2023-04-06T02:18:22;6.53;;;5.25;;
43152;SDS011;28756;49.064;9.290;2023-04-06T02:20:47;7.55;;;5.57;;
43152;SDS011;28756;49.064;9.290;2023-04-06T02:23:13;7.32;;;5.53;;
43152;SDS011;28756;49.064;9.290;2023-04-06T02:25:39;7.15;;;5.57;;
43152;SDS011;28756;49.064;9.290;2023-04-06T02:28:05;7.57;;;5.43;;
43152;SDS011;28756;49.064;9.290;2023-04-06T02:30:31;7.57;;;5.70;;
43152;SDS011;28756;49.064;9.290;2023-04-06T02:32:57;8.77;;;5.30;;
43152;SDS011;28756;49.064;9.290;2023-04-06T02:35:25;8.00;;;6.03;;
43152;SDS011;28756;49.064;9.290;2023-04-06T02:37:52;7.40;;;5.97;;
43152;SDS011;28756;49.064;9.290;2023-04-06T02:40:18;6.63;;;5.15;;
43152;SDS011;28756;49.064;9.290;2023-04-06T02:42:43;7.95;;;5.50;;
43152;SDS011;28756;49.064;9.290;2023-04-06T02:45:09;6.15;;;5.03;;
43152;SDS011;28756;49.064;9.290;2023-04-06T02:47:35;7.20;;;5.75;;
43152;SDS011;28756;49.064;9.290;2023-04-06T02:50:00;7.90;;;5.82;;
43152;SDS011;28756;49.064;9.290;2023-04-06T02:52:26;7.68;;;5.45;;
43152;SDS011;28756;49.064;9.290;2023-04-06T02:54:52;8.05;;;5.53;;
43152;SDS011;28756;49.064;9.290;2023-04-06T02:57:18;6.68;;;5.15;;
43152;SDS011;28756;49.064;9.290;2023-04-06T02:59:43;6.97;;;5.00;;
43152;SDS011;28756;49.064;9.290;2023-04-06T03:02:09;5.80;;;4.80;;
43152;SDS011;28756;49.064;9.290;2023-04-06T03:04:35;5.88;;;5.05;;
43152;SDS011;28756;49.064;9.290;2023-04-06T03:07:00;8.23;;;4.90;;
43152;SDS011;28756;49.064;9.290;2023-04-06T03:09:26;7.70;;;4.65;;
43152;SDS011;28756;49.064;9.290;2023-04-06T03:11:52;5.70;;;4.90;;
43152;SDS011;28756;49.064;9.290;2023-04-06T03:14:18;8.07;;;5.10;;
43152;SDS011;28756;49.064;9.290;2023-04-06T03:16:46;6.97;;;4.85;;
43152;SDS011;28756;49.064;9.290;2023-04-06T03:19:13;5.18;;;4.53;;
43152;SDS011;28756;49.064;9.290;2023-04-06T03:21:40;6.65;;;5.03;;
43152;SDS011;28756;49.064;9.290;2023-04-06T03:24:06;6.78;;;5.03;;
43152;SDS011;28756;49.064;9.290;2023-04-06T03:26:32;7.07;;;5.55;;
43152;SDS011;28756;49.064;9.290;2023-04-06T03:28:58;8.23;;;5.10;;
43152;SDS011;28756;49.064;9.290;2023-04-06T03:31:24;7.28;;;5.30;;
43152;SDS011;28756;49.064;9.290;2023-04-06T03:33:51;6.53;;;4.80;;
43152;SDS011;28756;49.064;9.290;2023-04-06T03:36:17;6.57;;;4.75;;
43152;SDS011;28756;49.064;9.290;2023-04-06T03:38:42;7.65;;;5.50;;
43152;SDS011;28756;49.064;9.290;2023-04-06T03:41:08;7.07;;;4.60;;
43152;SDS011;28756;49.064;9.290;2023-04-06T03:43:34;6.53;;;4.82;;
43152;SDS011;28756;49.064;9.290;2023-04-06T03:46:00;8.77;;;5.68;;
43152;SDS011;28756;49.064;9.290;2023-04-06T03:48:26;7.80;;;5.65;;
43152;SDS011;28756;49.064;9.290;2023-04-06T03:50:51;10.43;;;6.65;;
43152;SDS011;28756;49.064;9.290;2023-04-06T03:53:17;18.42;;;8.55;;
43152;SDS011;28756;49.064;9.290;2023-04-06T03:55:43;55.22;;;19.55;;
43152;SDS011;28756;49.064;9.290;2023-04-06T03:58:08;63.50;;;22.60;;
43152;SDS011;28756;49.064;9.290;2023-04-06T04:00:34;49.78;;;20.17;;
43152;SDS011;28756;49.064;9.290;2023-04-06T04:03:00;56.40;;;21.52;;
43152;SDS011;28756;49.064;9.290;2023-04-06T04:05:27;53.95;;;20.67;;
43152;SDS011;28756;49.064;9.290;2023-04-06T04:07:53;48.05;;;19.90;;
43152;SDS011;28756;49.064;9.290;2023-04-06T04:10:19;37.88;;;17.02;;
43152;SDS011;28756;49.064;9.290;2023-04-06T04:12:44;25.02;;;12.27;;
43152;SDS011;28756;49.064;9.290;2023-04-06T04:15:10;24.58;;;11.93;;
43152;SDS011;28756;49.064;9.290;2023-04-06T04:17:36;34.92;;;14.60;;
43152;SDS011;28756;49.064;9.290;2023-04-06T04:20:01;32.97;;;15.25;;
43152;SDS011;28756;49.064;9.290;2023-04-06T04:22:27;29.75;;;13.38;;
43152;SDS011;28756;49.064;9.290;2023-04-06T04:24:53;26.70;;;12.13;;
43152;SDS011;28756;49.064;9.290;2023-04-06T04:27:19;21.00;;;10.07;;
43152;SDS011;28756;49.064;9.290;2023-04-06T04:29:45;18.90;;;9.52;;
43152;SDS011;28756;49.064;9.290;2023-04-06T04:32:11;22.15;;;10.98;;
43152;SDS011;28756;49.064;9.290;2023-04-06T04:34:37;23.77;;;11.32;;
43152;SDS011;28756;49.064;9.290;2023-04-06T04:37:05;24.52;;;11.30;;
43152;SDS011;28756;49.064;9.290;2023-04-06T04:39:31;25.85;;;13.68;;
43152;SDS011;28756;49.064;9.290;2023-04-06T04:41:57;24.27;;;12.82;;
43152;SDS011;28756;49.064;9.290;2023-04-06T04:44:23;25.67;;;12.93;;
43152;SDS011;28756;49.064;9.290;2023-04-06T04:46:49;23.13;;;12.18;;
43152;SDS011;28756;49.064;9.290;2023-04-06T04:49:15;22.77;;;12.27;;
43152;SDS011;28756;49.064;9.290;2023-04-06T04:51:41;15.73;;;9.35;;
43152;SDS011;28756;49.064;9.290;2023-04-06T04:54:06;18.17;;;9.93;;
43152;SDS011;28756;49.064;9.290;2023-04-06T04:56:32;14.20;;;8.73;;
43152;SDS011;28756;49.064;9.290;2023-04-06T04:58:58;16.40;;;9.52;;
43152;SDS011;28756;49.064;9.290;2023-04-06T05:01:23;15.63;;;9.02;;
43152;SDS011;28756;49.064;9.290;2023-04-06T05:03:49;16.60;;;9.25;;
43152;SDS011;28756;49.064;9.290;2023-04-06T05:06:15;13.35;;;8.65;;
43152;SDS011;28756;49.064;9.290;2023-04-06T05:08:41;15.43;;;8.13;;
43152;SDS011;28756;49.064;9.290;2023-04-06T05:11:07;14.05;;;9.13;;
43152;SDS011;28756;49.064;9.290;2023-04-06T05:13:34;12.57;;;7.63;;
43152;SDS011;28756;49.064;9.290;2023-04-06T05:16:00;10.65;;;7.10;;
43152;SDS011;28756;49.064;9.290;2023-04-06T05:18:26;11.55;;;7.85;;
43152;SDS011;28756;49.064;9.290;2023-04-06T05:20:52;10.90;;;7.28;;
43152;SDS011;28756;49.064;9.290;2023-04-06T05:23:17;14.18;;;8.50;;
43152;SDS011;28756;49.064;9.290;2023-04-06T05:25:43;10.52;;;7.63;;
43152;SDS011;28756;49.064;9.290;2023-04-06T05:28:09;9.57;;;6.82;;
43152;SDS011;28756;49.064;9.290;2023-04-06T05:30:35;8.48;;;6.57;;
43152;SDS011;28756;49.064;9.290;2023-04-06T05:33:00;10.18;;;6.82;;
43152;SDS011;28756;49.064;9.290;2023-04-06T05:35:27;12.90;;;8.32;;
43152;SDS011;28756;49.064;9.290;2023-04-06T05:37:52;12.77;;;7.90;;
43152;SDS011;28756;49.064;9.290;2023-04-06T05:40:18;11.70;;;7.53;;
43152;SDS011;28756;49.064;9.290;2023-04-06T05:42:44;11.27;;;7.43;;
43152;SDS011;28756;49.064;9.290;2023-04-06T05:45:10;8.43;;;6.43;;
43152;SDS011;28756;49.064;9.290;2023-04-06T05:47:41;12.23;;;7.63;;
43152;SDS011;28756;49.064;9.290;2023-04-06T05:50:09;11.50;;;7.38;;
43152;SDS011;28756;49.064;9.290;2023-04-06T05:52:35;14.57;;;7.53;;
43152;SDS011;28756;49.064;9.290;2023-04-06T05:55:02;9.68;;;6.43;;
43152;SDS011;28756;49.064;9.290;2023-04-06T05:57:28;11.70;;;6.55;;
43152;SDS011;28756;49.064;9.290;2023-04-06T05:59:54;9.98;;;6.82;;
43152;SDS011;28756;49.064;9.290;2023-04-06T06:02:20;14.07;;;8.23;;
43152;SDS011;28756;49.064;9.290;2023-04-06T06:04:46;16.10;;;9.43;;
43152;SDS011;28756;49.064;9.290;2023-04-06T06:07:13;19.50;;;10.50;;
43152;SDS011;28756;49.064;9.290;2023-04-06T06:09:40;23.30;;;11.52;;
43152;SDS011;28756;49.064;9.290;2023-04-06T06:12:05;17.77;;;10.05;;
43152;SDS011;28756;49.064;9.290;2023-04-06T06:14:31;21.10;;;10.15;;
43152;SDS011;28756;49.064;9.290;2023-04-06T06:16:57;16.65;;;10.15;;
43152;SDS011;28756;49.064;9.290;2023-04-06T06:19:23;12.60;;;8.50;;
43152;SDS011;28756;49.064;9.290;2023-04-06T06:21:48;12.38;;;7.90;;
43152;SDS011;28756;49.064;9.290;2023-04-06T06:24:14;8.23;;;6.32;;
43152;SDS011;28756;49.064;9.290;2023-04-06T06:26:40;9.38;;;7.00;;
43152;SDS011;28756;49.064;9.290;2023-04-06T06:29:06;7.80;;;6.57;;
43152;SDS011;28756;49.064;9.290;2023-04-06T06:31:32;9.05;;;6.22;;
43152;SDS011;28756;49.064;9.290;2023-04-06T06:33:58;9.18;;;6.78;;
43152;SDS011;28756;49.064;9.290;2023-04-06T06:36:23;8.15;;;6.43;;
43152;SDS011;28756;49.064;9.290;2023-04-06T06:38:50;7.25;;;5.90;;
43152;SDS011;28756;49.064;9.290;2023-04-06T06:41:16;8.10;;;6.35;;
43152;SDS011;28756;49.064;9.290;2023-04-06T06:43:42;8.35;;;6.38;;
43152;SDS011;28756;49.064;9.290;2023-04-06T06:46:08;8.23;;;6.53;;
43152;SDS011;28756;49.064;9.290;2023-04-06T06:48:33;8.93;;;6.43;;
43152;SDS011;28756;49.064;9.290;2023-04-06T06:50:59;8.32;;;6.35;;
43152;SDS011;28756;49.064;9.290;2023-04-06T06:53:25;9.02;;;6.55;;
43152;SDS011;28756;49.064;9.290;2023-04-06T06:55:51;8.20;;;6.70;;
43152;SDS011;28756;49.064;9.290;2023-04-06T06:58:18;8.02;;;6.65;;
43152;SDS011;28756;49.064;9.290;2023-04-06T07:00:45;9.48;;;6.85;;
43152;SDS011;28756;49.064;9.290;2023-04-06T07:03:11;9.30;;;6.95;;
43152;SDS011;28756;49.064;9.290;2023-04-06T07:05:37;9.63;;;7.20;;
43152;SDS011;28756;49.064;9.290;2023-04-06T07:08:02;14.38;;;7.35;;
43152;SDS011;28756;49.064;9.290;2023-04-06T07:10:29;7.47;;;6.32;;
43152;SDS011;28756;49.064;9.290;2023-04-06T07:12:54;8.48;;;7.00;;
43152;SDS011;28756;49.064;9.290;2023-04-06T07:15:21;9.55;;;7.18;;
43152;SDS011;28756;49.064;9.290;2023-04-06T07:17:46;9.07;;;7.28;;
43152;SDS011;28756;49.064;9.290;2023-04-06T07:20:13;9.45;;;7.80;;
43152;SDS011;28756;49.064;9.290;2023-04-06T07:22:40;10.60;;;7.50;;
43152;SDS011;28756;49.064;9.290;2023-04-06T07:25:07;10.20;;;7.43;;
43152;SDS011;28756;49.064;9.290;2023-04-06T07:27:33;11.60;;;7.95;;
43152;SDS011;28756;49.064;9.290;2023-04-06T07:29:59;10.13;;;7.30;;
43152;SDS011;28756;49.064;9.290;2023-04-06T07:32:24;9.57;;;6.85;;
43152;SDS011;28756;49.064;9.290;2023-04-06T07:34:50;8.82;;;6.85;;
43152;SDS011;28756;49.064;9.290;2023-04-06T07:37:16;10.63;;;7.30;;
43152;SDS011;28756;49.064;9.290;2023-04-06T07:39:42;8.23;;;6.60;;
43152;SDS011;28756;49.064;9.290;2023-04-06T07:42:08;8.77;;;7.30;;
43152;SDS011;28756;49.064;9.290;2023-04-06T07:44:33;9.23;;;6.60;;
43152;SDS011;28756;49.064;9.290;2023-04-06T07:46:59;7.72;;;6.72;;
43152;SDS011;28756;49.064;9.290;2023-04-06T07:49:25;9.35;;;6.75;;
43152;SDS011;28756;49.064;9.290;2023-04-06T07:51:51;8.10;;;6.90;;
43152;SDS011;28756;49.064;9.290;2023-04-06T07:54:16;8.98;;;6.90;;
43152;SDS011;28756;49.064;9.290;2023-04-06T07:56:42;10.05;;;6.70;;
43152;SDS011;28756;49.064;9.290;2023-04-06T07:59:08;9.20;;;6.60;;
43152;SDS011;28756;49.064;9.290;2023-04-06T08:01:33;8.85;;;7.13;;
43152;SDS011;28756;49.064;9.290;2023-04-06T08:03:59;8.98;;;7.05;;
43152;SDS011;28756;49.064;9.290;2023-04-06T08:06:27;8.35;;;6.78;;
43152;SDS011;28756;49.064;9.290;2023-04-06T08:08:53;8.57;;;6.70;;
43152;SDS011;28756;49.064;9.290;2023-04-06T08:11:19;9.68;;;7.05;;
43152;SDS011;28756;49.064;9.290;2023-04-06T08:13:45;9.77;;;7.00;;
43152;SDS011;28756;49.064;9.290;2023-04-06T08:16:11;9.00;;;6.53;;
43152;SDS011;28756;49.064;9.290;2023-04-06T08:18:37;9.98;;;6.50;;
43152;SDS011;28756;49.064;9.290;2023-04-06T08:21:02;7.57;;;6.75;;
43152;SDS011;28756;49.064;9.290;2023-04-06T08:23:28;8.10;;;6.50;;
43152;SDS011;28756;49.064;9.290;2023-04-06T08:25:54;7.88;;;6.80;;
43152;SDS011;28756;49.064;9.290;2023-04-06T08:28:20;8.38;;;6.43;;
43152;SDS011;28756;49.064;9.290;2023-04-06T08:30:46;7.55;;;6.50;;
43152;SDS011;28756;49.064;9.290;2023-04-06T08:33:13;7.80;;;6.57;;
43152;SDS011;28756;49.064;9.290;2023-04-06T08:35:38;7.32;;;6.00;;
43152;SDS011;28756;49.064;9.290;2023-04-06T08:38:04;7.45;;;5.97;;
43152;SDS011;28756;49.064;9.290;2023-04-06T08:40:35;7.90;;;6.47;;
43152;SDS011;28756;49.064;9.290;2023-04-06T08:43:12;9.23;;;5.97;;
43152;SDS011;28756;49.064;9.290;2023-04-06T08:45:40;8.35;;;6.43;;
43152;SDS011;28756;49.064;9.290;2023-04-06T08:48:07;7.55;;;6.10;;
43152;SDS011;28756;49.064;9.290;2023-04-06T08:50:34;7.57;;;6.45;;
43152;SDS011;28756;49.064;9.290;2023-04-06T08:53:00;7.32;;;5.90;;
43152;SDS011;28756;49.064;9.290;2023-04-06T08:55:26;8.13;;;6.18;;
43152;SDS011;28756;49.064;9.290;2023-04-06T08:57:52;6.68;;;5.95;;
43152;SDS011;28756;49.064;9.290;2023-04-06T09:00:21;6.40;;;5.70;;
43152;SDS011;28756;49.064;9.290;2023-04-06T09:02:48;6.65;;;5.95;;
43152;SDS011;28756;49.064;9.290;2023-04-06T09:05:14;6.50;;;5.80;;
43152;SDS011;28756;49.064;9.290;2023-04-06T09:07:41;7.05;;;5.60;;
43152;SDS011;28756;49.064;9.290;2023-04-06T09:10:07;8.07;;;5.97;;
43152;SDS011;28756;49.064;9.290;2023-04-06T09:12:34;9.23;;;6.20;;
43152;SDS011;28756;49.064;9.290;2023-04-06T09:15:00;9.52;;;5.43;;
43152;SDS011;28756;49.064;9.290;2023-04-06T09:17:28;7.05;;;5.50;;
43152;SDS011;28756;49.064;9.290;2023-04-06T09:19:57;7.03;;;5.50;;
43152;SDS011;28756;49.064;9.290;2023-04-06T09:22:24;6.75;;;5.88;;
43152;SDS011;28756;49.064;9.290;2023-04-06T09:24:53;8.43;;;5.57;;
43152;SDS011;28756;49.064;9.290;2023-04-06T09:27:32;7.05;;;5.70;;
43152;SDS011;28756;49.064;9.290;2023-04-06T09:30:06;6.10;;;5.50;;
43152;SDS011;28756;49.064;9.290;2023-04-06T09:35:15;7.78;;;5.95;;
43152;SDS011;28756;49.064;9.290;2023-04-06T09:37:42;7.15;;;6.00;;
43152;SDS011;28756;49.064;9.290;2023-04-06T09:40:09;8.05;;;5.90;;
43152;SDS011;28756;49.064;9.290;2023-04-06T09:42:35;6.65;;;5.55;;
43152;SDS011;28756;49.064;9.290;2023-04-06T09:45:01;7.05;;;5.57;;
43152;SDS011;28756;49.064;9.290;2023-04-06T09:47:28;6.55;;;5.47;;
43152;SDS011;28756;49.064;9.290;2023-04-06T09:49:58;7.35;;;5.85;;
43152;SDS011;28756;49.064;9.290;2023-04-06T09:52:58;8.18;;;6.55;;
43152;SDS011;28756;49.064;9.290;2023-04-06T09:55:41;7.05;;;5.85;;
43152;SDS011;28756;49.064;9.290;2023-04-06T09:58:09;6.40;;;5.68;;
43152;SDS011;28756;49.064;9.290;2023-04-06T10:01:20;7.40;;;5.90;;
43152;SDS011;28756;49.064;9.290;2023-04-06T10:06:29;6.88;;;5.60;;
43152;SDS011;28756;49.064;9.290;2023-04-06T10:09:00;5.95;;;4.85;;
43152;SDS011;28756;49.064;9.290;2023-04-06T10:11:29;5.63;;;4.70;;
43152;SDS011;28756;49.064;9.290;2023-04-06T10:13:56;6.68;;;5.15;;
43152;SDS011;28756;49.064;9.290;2023-04-06T10:16:22;5.97;;;4.25;;
43152;SDS011;28756;49.064;9.290;2023-04-06T10:18:50;6.50;;;4.97;;
43152;SDS011;28756;49.064;9.290;2023-04-06T10:21:23;6.90;;;5.10;;
43152;SDS011;28756;49.064;9.290;2023-04-06T10:23:53;6.65;;;5.00;;
43152;SDS011;28756;49.064;9.290;2023-04-06T10:26:24;7.35;;;5.50;;
43152;SDS011;28756;49.064;9.290;2023-04-06T10:28:51;5.97;;;4.65;;
43152;SDS011;28756;49.064;9.290;2023-04-06T10:31:27;6.55;;;5.50;;
43152;SDS011;28756;49.064;9.290;2023-04-06T10:33:57;7.38;;;4.80;;
43152;SDS011;28756;49.064;9.290;2023-04-06T10:36:26;10.38;;;5.60;;
43152;SDS011;28756;49.064;9.290;2023-04-06T10:39:03;5.50;;;4.70;;
43152;SDS011;28756;49.064;9.290;2023-04-06T10:41:41;5.82;;;4.90;;
43152;SDS011;28756;49.064;9.290;2023-04-06T10:44:22;7.57;;;5.55;;
43152;SDS011;28756;49.064;9.290;2023-04-06T10:46:55;7.15;;;5.80;;
43152;SDS011;28756;49.064;9.290;2023-04-06T10:49:25;6.00;;;5.03;;
43152;SDS011;28756;49.064;9.290;2023-04-06T10:51:54;5.82;;;4.88;;
43152;SDS011;28756;49.064;9.290;2023-04-06T10:54:22;5.68;;;4.97;;
43152;SDS011;28756;49.064;9.290;2023-04-06T10:56:51;9.85;;;5.60;;
43152;SDS011;28756;49.064;9.290;2023-04-06T10:59:18;8.32;;;6.13;;
43152;SDS011;28756;49.064;9.290;2023-04-06T11:01:48;6.18;;;5.50;;
43152;SDS011;28756;49.064;9.290;2023-04-06T11:04:17;6.45;;;5.40;;
43152;SDS011;28756;49.064;9.290;2023-04-06T11:06:48;7.95;;;5.28;;
43152;SDS011;28756;49.064;9.290;2023-04-06T11:09:33;7.63;;;5.20;;
43152;SDS011;28756;49.064;9.290;2023-04-06T11:12:01;6.43;;;4.85;;
43152;SDS011;28756;49.064;9.290;2023-04-06T11:18:08;7.97;;;4.82;;
43152;SDS011;28756;49.064;9.290;2023-04-06T11:20:34;7.40;;;5.32;;
43152;SDS011;28756;49.064;9.290;2023-04-06T11:23:00;7.55;;;5.38;;
43152;SDS011;28756;49.064;9.290;2023-04-06T11:25:26;7.40;;;4.93;;
43152;SDS011;28756;49.064;9.290;2023-04-06T11:27:52;6.93;;;5.05;;
43152;SDS011;28756;49.064;9.290;2023-04-06T11:30:18;7.20;;;5.47;;
43152;SDS011;28756;49.064;9.290;2023-04-06T11:32:45;7.80;;;5.70;;
43152;SDS011;28756;49.064;9.290;2023-04-06T11:35:20;7.05;;;5.72;;
43152;SDS011;28756;49.064;9.290;2023-04-06T11:37:48;7.60;;;5.22;;
43152;SDS011;28756;49.064;9.290;2023-04-06T11:40:15;8.90;;;6.07;;
43152;SDS011;28756;49.064;9.290;2023-04-06T11:42:51;10.23;;;6.57;;
43152;SDS011;28756;49.064;9.290;2023-04-06T11:45:18;9.25;;;7.10;;
43152;SDS011;28756;49.064;9.290;2023-04-06T11:47:44;9.02;;;6.90;;
43152;SDS011;28756;49.064;9.290;2023-04-06T11:50:10;10.05;;;6.90;;
43152;SDS011;28756;49.064;9.290;2023-04-06T11:52:38;8.35;;;6.30;;
43152;SDS011;28756;49.064;9.290;2023-04-06T11:55:13;7.70;;;6.07;;
43152;SDS011;28756;49.064;9.290;2023-04-06T11:57:43;11.55;;;7.05;;
43152;SDS011;28756;49.064;9.290;2023-04-06T12:00:10;9.00;;;6.40;;
43152;SDS011;28756;49.064;9.290;2023-04-06T12:02:37;6.40;;;5.68;;
43152;SDS011;28756;49.064;9.290;2023-04-06T12:05:04;10.75;;;7.22;;
43152;SDS011;28756;49.064;9.290;2023-04-06T12:07:32;7.82;;;6.10;;
43152;SDS011;28756;49.064;9.290;2023-04-06T12:09:58;9.80;;;6.05;;
43152;SDS011;28756;49.064;9.290;2023-04-06T12:12:27;8.02;;;6.07;;
43152;SDS011;28756;49.064;9.290;2023-04-06T12:14:53;9.23;;;6.30;;
43152;SDS011;28756;49.064;9.290;2023-04-06T12:17:20;7.78;;;6.10;;
43152;SDS011;28756;49.064;9.290;2023-04-06T12:19:46;10.88;;;7.63;;
43152;SDS011;28756;49.064;9.290;2023-04-06T12:22:12;8.93;;;6.55;;
43152;SDS011;28756;49.064;9.290;2023-04-06T12:24:38;17.08;;;11.30;;
43152;SDS011;28756;49.064;9.290;2023-04-06T12:27:04;14.20;;;9.30;;
43152;SDS011;28756;49.064;9.290;2023-04-06T12:29:29;9.90;;;7.20;;
43152;SDS011;28756;49.064;9.290;2023-04-06T12:31:55;9.20;;;6.15;;
43152;SDS011;28756;49.064;9.290;2023-04-06T12:34:21;8.77;;;6.40;;
43152;SDS011;28756;49.064;9.290;2023-04-06T12:36:47;9.63;;;6.57;;
43152;SDS011;28756;49.064;9.290;2023-04-06T12:42:53;9.38;;;6.30;;
43152;SDS011;28756;49.064;9.290;2023-04-06T12:45:19;8.20;;;6.45;;
43152;SDS011;28756;49.064;9.290;2023-04-06T12:47:45;7.68;;;5.97;;
43152;SDS011;28756;49.064;9.290;2023-04-06T12:50:11;10.65;;;7.00;;
43152;SDS011;28756;49.064;9.290;2023-04-06T12:52:36;8.88;;;6.30;;
43152;SDS011;28756;49.064;9.290;2023-04-06T12:55:02;9.90;;;6.47;;
43152;SDS011;28756;49.064;9.290;2023-04-06T12:57:30;12.15;;;9.07;;
43152;SDS011;28756;49.064;9.290;2023-04-06T12:59:56;17.60;;;11.18;;
43152;SDS011;28756;49.064;9.290;2023-04-06T13:02:22;22.70;;;14.45;;
43152;SDS011;28756;49.064;9.290;2023-04-06T13:04:48;32.80;;;21.50;;
43152;SDS011;28756;49.064;9.290;2023-04-06T13:07:15;14.10;;;10.85;;
43152;SDS011;28756;49.064;9.290;2023-04-06T13:09:41;22.88;;;13.70;;
43152;SDS011;28756;49.064;9.290;2023-04-06T13:12:06;14.68;;;10.10;;
43152;SDS011;28756;49.064;9.290;2023-04-06T13:14:32;10.75;;;7.78;;
43152;SDS011;28756;49.064;9.290;2023-04-06T13:16:58;10.30;;;7.15;;
43152;SDS011;28756;49.064;9.290;2023-04-06T13:19:24;10.98;;;6.47;;
43152;SDS011;28756;49.064;9.290;2023-04-06T13:21:50;8.75;;;6.32;;
43152;SDS011;28756;49.064;9.290;2023-04-06T13:24:16;10.73;;;6.55;;
43152;SDS011;28756;49.064;9.290;2023-04-06T13:26:41;9.48;;;6.57;;
43152;SDS011;28756;49.064;9.290;2023-04-06T13:29:07;10.02;;;6.53;;
43152;SDS011;28756;49.064;9.290;2023-04-06T13:31:33;10.50;;;6.07;;
43152;SDS011;28756;49.064;9.290;2023-04-06T13:33:58;11.32;;;6.10;;
43152;SDS011;28756;49.064;9.290;2023-04-06T13:36:25;10.45;;;6.05;;
43152;SDS011;28756;49.064;9.290;2023-04-06T13:38:51;9.20;;;6.03;;
43152;SDS011;28756;49.064;9.290;2023-04-06T13:41:21;8.65;;;6.35;;
43152;SDS011;28756;49.064;9.290;2023-04-06T13:43:48;6.80;;;5.50;;
43152;SDS011;28756;49.064;9.290;2023-04-06T13:46:14;7.55;;;5.28;;
43152;SDS011;28756;49.064;9.290;2023-04-06T13:48:41;15.77;;;10.25;;
43152;SDS011;28756;49.064;9.290;2023-04-06T13:51:08;11.60;;;7.60;;
43152;SDS011;28756;49.064;9.290;2023-04-06T13:53:35;9.60;;;6.55;;
43152;SDS011;28756;49.064;9.290;2023-04-06T13:56:01;9.18;;;6.60;;
43152;SDS011;28756;49.064;9.290;2023-04-06T13:58:27;10.70;;;6.75;;
43152;SDS011;28756;49.064;9.290;2023-04-06T14:00:53;8.95;;;5.80;;
43152;SDS011;28756;49.064;9.290;2023-04-06T14:03:19;8.68;;;6.22;;
43152;SDS011;28756;49.064;9.290;2023-04-06T14:05:46;7.85;;;5.55;;
43152;SDS011;28756;49.064;9.290;2023-04-06T14:08:12;7.75;;;5.63;;
43152;SDS011;28756;49.064;9.290;2023-04-06T14:10:38;9.75;;;5.53;;
43152;SDS011;28756;49.064;9.290;2023-04-06T14:13:05;8.85;;;5.60;;
43152;SDS011;28756;49.064;9.290;2023-04-06T14:15:31;8.05;;;5.40;;
43152;SDS011;28756;49.064;9.290;2023-04-06T14:17:57;7.45;;;5.20;;
43152;SDS011;28756;49.064;9.290;2023-04-06T14:20:23;7.60;;;4.75;;
43152;SDS011;28756;49.064;9.290;2023-04-06T14:22:48;9.88;;;6.15;;
43152;SDS011;28756;49.064;9.290;2023-04-06T14:25:16;9.98;;;7.55;;
43152;SDS011;28756;49.064;9.290;2023-04-06T14:27:42;17.83;;;8.27;;
43152;SDS011;28756;49.064;9.290;2023-04-06T14:30:09;11.68;;;8.68;;
43152;SDS011;28756;49.064;9.290;2023-04-06T14:32:35;12.23;;;7.78;;
43152;SDS011;28756;49.064;9.290;2023-04-06T14:35:02;8.63;;;6.65;;
43152;SDS011;28756;49.064;9.290;2023-04-06T14:37:29;9.38;;;6.22;;
43152;SDS011;28756;49.064;9.290;2023-04-06T14:39:55;10.30;;;6.68;;
43152;SDS011;28756;49.064;9.290;2023-04-06T14:42:21;9.50;;;5.88;;
43152;SDS011;28756;49.064;9.290;2023-04-06T14:44:46;8.77;;;5.35;;
43152;SDS011;28756;49.064;9.290;2023-04-06T14:47:13;8.13;;;5.47;;
43152;SDS011;28756;49.064;9.290;2023-04-06T14:49:45;8.70;;;5.40;;
43152;SDS011;28756;49.064;9.290;2023-04-06T14:52:12;8.75;;;5.75;;